Time;durP1;ratioP1;P1;durP2;ratioP2;P2;SDS_P1;SDS_P2;PMS_P1;PMS_P2;Temp;Humidity;BMP_temperature;BMP_pressure;BME280_temperature;BME280_humidity;BME280_pressure;Samples;Min_cycle;Max_cycle;Signal;HPM_P1;HPM_P2
2022/01/26 00:07:18;;;;;;;24.67;19.60;;;2.50;99.90;;;;;;5034144;28;20538;-86
2022/01/26 00:09:44;;;;;;;27.83;20.17;;;2.60;99.90;;;;;;5033819;28;20175;-86
2022/01/26 00:12:10;;;;;;;27.17;19.77;;;2.60;99.90;;;;;;5015838;28;20625;-84
2022/01/26 00:14:41;;;;;;;26.07;20.80;;;2.50;99.90;;;;;;5033257;28;20184;-85
2022/01/26 00:17:10;;;;;;;26.17;19.73;;;2.50;99.90;;;;;;5033515;28;20157;-85
2022/01/26 00:19:57;;;;;;;25.53;20.30;;;2.60;99.90;;;;;;5033558;28;20171;-85
2022/01/26 00:28:09;;;;;;;26.87;19.77;;;2.60;99.90;;;;;;5002224;28;20582;-85
2022/01/26 00:38:51;;;;;;;24.10;19.20;;;2.70;99.90;;;;;;5033653;28;20172;-85
2022/01/26 00:41:22;;;;;;;28.67;21.40;;;2.70;99.90;;;;;;5035506;28;20180;-85
2022/01/26 00:43:55;;;;;;;28.37;20.77;;;2.70;99.90;;;;;;5037606;28;20168;-85
2022/01/26 00:46:22;;;;;;;28.03;19.93;;;2.70;99.90;;;;;;5036888;28;20183;-85
2022/01/26 00:48:50;;;;;;;24.67;19.43;;;2.70;99.90;;;;;;5037193;28;20631;-85
2022/01/26 00:51:17;;;;;;;27.30;20.23;;;2.60;99.90;;;;;;5036818;28;20234;-86
2022/01/26 00:54:07;;;;;;;28.53;20.73;;;2.60;99.90;;;;;;5036773;28;20188;-84
2022/01/26 00:56:30;;;;;;;27.80;21.27;;;2.60;99.90;;;;;;5036179;28;20190;-84
2022/01/26 00:58:56;;;;;;;27.43;20.73;;;2.50;99.90;;;;;;5019096;28;20695;-85
2022/01/26 01:01:22;;;;;;;26.50;19.47;;;2.60;99.90;;;;;;5036712;28;20172;-85
2022/01/26 01:03:48;;;;;;;26.67;20.23;;;2.70;99.90;;;;;;5036581;28;20180;-85
2022/01/26 01:06:24;;;;;;;25.80;20.03;;;2.60;99.90;;;;;;5036960;28;20477;-84
2022/01/26 01:08:51;;;;;;;25.37;19.90;;;2.70;99.90;;;;;;5036658;28;20157;-85
2022/01/26 01:11:17;;;;;;;27.00;19.30;;;2.70;99.90;;;;;;5037117;28;20180;-86
2022/01/26 01:13:44;;;;;;;25.47;19.63;;;2.70;99.90;;;;;;5037737;28;20706;-85
2022/01/26 01:16:16;;;;;;;26.30;19.17;;;2.70;99.90;;;;;;5045858;28;20176;-85
2022/01/26 01:34:09;;;;;;;27.80;20.50;;;2.60;99.90;;;;;;4957846;29;20194;-86
2022/01/26 01:36:37;;;;;;;27.07;20.43;;;2.60;99.90;;;;;;4939511;29;20179;-84
2022/01/26 01:39:07;;;;;;;28.13;20.37;;;2.70;99.90;;;;;;4955703;28;20233;-85
2022/01/26 01:41:40;;;;;;;29.83;21.40;;;2.70;99.90;;;;;;4955412;29;20663;-84
2022/01/26 01:44:07;;;;;;;28.30;20.90;;;2.70;99.90;;;;;;4955708;29;20198;-84
2022/01/26 01:46:34;;;;;;;27.40;21.77;;;2.70;99.90;;;;;;4955445;28;20204;-85
2022/01/26 01:49:02;;;;;;;29.80;20.90;;;2.60;99.90;;;;;;4955667;29;20183;-85
2022/01/26 01:51:33;;;;;;;29.60;21.47;;;2.60;99.90;;;;;;4954412;28;20200;-84
2022/01/26 01:53:59;;;;;;;29.33;21.47;;;2.60;99.90;;;;;;4955715;29;20178;-84
2022/01/26 01:56:26;;;;;;;28.57;21.60;;;2.70;99.90;;;;;;4955326;28;20254;-83
2022/01/26 01:58:53;;;;;;;31.50;22.03;;;2.70;99.90;;;;;;4955457;29;20555;-84
2022/01/26 02:01:20;;;;;;;31.10;22.63;;;2.70;99.90;;;;;;4955234;28;20211;-85
2022/01/26 02:03:46;;;;;;;29.73;21.50;;;2.70;99.90;;;;;;4955307;29;20178;-84
2022/01/26 02:06:12;;;;;;;30.37;22.70;;;2.70;99.90;;;;;;4999754;28;20659;-85
2022/01/26 02:08:41;;;;;;;29.67;21.80;;;2.70;99.90;;;;;;5035523;28;20226;-84
2022/01/26 02:11:09;;;;;;;32.43;23.00;;;2.70;99.90;;;;;;5035076;28;20177;-84
2022/01/26 02:13:45;;;;;;;31.40;22.30;;;2.70;99.90;;;;;;5034785;28;20200;-84
2022/01/26 02:16:25;;;;;;;29.97;21.30;;;2.70;99.90;;;;;;5035190;28;20719;-85
2022/01/26 03:02:44;;;;;;;30.50;22.23;;;2.40;99.90;;;;;;4990528;28;20226;-84
2022/01/26 03:05:12;;;;;;;30.50;21.87;;;2.40;99.90;;;;;;5016928;28;20225;-84
2022/01/26 03:07:52;;;;;;;33.13;21.70;;;2.40;99.90;;;;;;5039335;28;20172;-85
2022/01/26 03:10:30;;;;;;;29.30;22.20;;;2.40;99.90;;;;;;5046651;28;20233;-82
2022/01/26 03:13:01;;;;;;;29.27;20.07;;;2.30;99.90;;;;;;5042566;28;20195;-85
2022/01/26 03:15:36;;;;;;;31.07;21.10;;;2.40;99.90;;;;;;5035364;28;20166;-84
2022/01/26 03:20:48;;;;;;;34.80;22.33;;;2.40;99.90;;;;;;5034181;28;20301;-85
2022/01/26 03:31:56;;;;;;;29.43;21.90;;;2.40;99.90;;;;;;5034017;28;20175;-83
2022/01/26 03:34:14;;;;;;;29.90;20.53;;;2.40;99.90;;;;;;5033605;28;20219;-83
2022/01/26 03:36:53;;;;;;;28.03;21.27;;;2.40;99.90;;;;;;5034005;28;20222;-83
2022/01/26 03:39:21;;;;;;;28.93;21.43;;;2.40;99.90;;;;;;5034004;28;20187;-83
2022/01/26 03:41:52;;;;;;;30.23;21.67;;;2.30;99.90;;;;;;5034164;28;20189;-83
2022/01/26 03:44:19;;;;;;;29.73;21.63;;;2.40;99.90;;;;;;5034143;28;20518;-84
2022/01/26 03:46:46;;;;;;;29.87;21.57;;;2.40;99.90;;;;;;5033937;28;20178;-84
2022/01/26 03:49:12;;;;;;;32.47;22.03;;;2.30;99.90;;;;;;5034022;28;20175;-83
2022/01/26 03:51:40;;;;;;;32.97;21.77;;;2.30;99.90;;;;;;5033792;28;20170;-83
2022/01/26 03:54:07;;;;;;;31.43;21.00;;;2.40;99.90;;;;;;5033359;28;20178;-83
2022/01/26 03:56:34;;;;;;;30.30;21.07;;;2.40;99.90;;;;;;5033511;28;20171;-83
2022/01/26 03:59:00;;;;;;;27.03;20.80;;;2.40;99.90;;;;;;5033480;28;20186;-83
2022/01/26 04:01:26;;;;;;;30.77;21.30;;;2.40;99.90;;;;;;5033439;28;20175;-84
2022/01/26 04:03:51;;;;;;;28.73;20.63;;;2.40;99.90;;;;;;5033610;28;20178;-85
2022/01/26 04:06:18;;;;;;;31.90;22.13;;;2.40;99.90;;;;;;5033454;28;20226;-85
2022/01/26 04:08:45;;;;;;;29.03;21.13;;;2.40;99.90;;;;;;5050453;28;20180;-83
2022/01/26 04:13:44;;;;;;;31.03;22.27;;;2.30;99.90;;;;;;5046530;28;20536;-85
2022/01/26 04:16:10;;;;;;;31.87;22.40;;;2.30;99.90;;;;;;5036920;28;20314;-86
2022/01/26 04:18:39;;;;;;;25.27;20.30;;;2.30;99.90;;;;;;5037581;28;20253;-85
2022/01/26 04:21:58;;;;;;;30.70;22.27;;;2.30;99.90;;;;;;5019997;28;20538;-85
2022/01/26 04:24:01;;;;;;;31.00;22.43;;;2.20;99.90;;;;;;5028068;28;20227;-84
2022/01/26 04:26:33;;;;;;;30.27;21.30;;;2.20;99.90;;;;;;5037229;28;20154;-83
2022/01/26 04:29:05;;;;;;;32.30;21.73;;;2.30;99.90;;;;;;5037036;28;20220;-84
2022/01/26 04:31:30;;;;;;;29.53;20.47;;;2.20;99.90;;;;;;5038589;28;20165;-86
2022/01/26 04:33:56;;;;;;;30.67;21.43;;;2.30;99.90;;;;;;5040239;28;20185;-84
2022/01/26 04:36:29;;;;;;;30.30;20.77;;;2.20;99.90;;;;;;5038064;28;20622;-84
2022/01/26 04:38:58;;;;;;;30.17;21.87;;;2.30;99.90;;;;;;5037690;28;20191;-85
2022/01/26 04:43:54;;;;;;;30.80;21.57;;;2.30;99.90;;;;;;5037343;28;20183;-85
2022/01/26 04:46:20;;;;;;;28.47;21.57;;;2.30;99.90;;;;;;5036879;28;20176;-84
2022/01/26 04:48:46;;;;;;;30.40;22.20;;;2.30;99.90;;;;;;5037053;28;20249;-84
2022/01/26 04:51:12;;;;;;;31.70;21.87;;;2.30;99.90;;;;;;5036745;28;20176;-86
2022/01/26 04:53:37;;;;;;;32.40;22.37;;;2.20;99.90;;;;;;5037111;28;20222;-83
2022/01/26 04:56:03;;;;;;;29.23;20.93;;;2.20;99.90;;;;;;5036691;28;20536;-83
2022/01/26 04:58:29;;;;;;;29.30;21.77;;;2.30;99.90;;;;;;5042546;28;20183;-85
2022/01/26 05:00:55;;;;;;;29.00;21.00;;;2.40;99.90;;;;;;5050530;28;20264;-84
2022/01/26 05:03:20;;;;;;;30.30;22.53;;;2.40;99.90;;;;;;5051124;28;20636;-85
2022/01/26 05:05:46;;;;;;;28.83;20.93;;;2.40;99.90;;;;;;5037589;28;20235;-84
2022/01/26 05:08:12;;;;;;;29.40;21.40;;;2.40;99.90;;;;;;5018926;28;20179;-86
2022/01/26 05:10:42;;;;;;;28.93;22.33;;;2.50;99.90;;;;;;5036325;28;20632;-84
2022/01/26 05:13:10;;;;;;;26.70;21.13;;;2.50;99.90;;;;;;5036501;28;20679;-83
2022/01/26 05:15:35;;;;;;;28.43;20.90;;;2.40;99.90;;;;;;5036249;28;20178;-86
2022/01/26 05:18:06;;;;;;;28.47;21.27;;;2.50;99.90;;;;;;5036204;28;20175;-83
2022/01/26 05:20:33;;;;;;;28.43;20.87;;;2.40;99.90;;;;;;5018394;28;20187;-84
2022/01/26 05:22:59;;;;;;;29.80;20.93;;;2.50;99.90;;;;;;5038550;28;20175;-85
2022/01/26 05:25:25;;;;;;;29.43;21.43;;;2.50;99.90;;;;;;5036072;28;20168;-85
2022/01/26 05:27:50;;;;;;;32.03;21.77;;;2.50;99.90;;;;;;5035003;28;20172;-85
2022/01/26 05:30:17;;;;;;;30.83;21.43;;;2.50;99.90;;;;;;5036038;28;20250;-84
2022/01/26 05:32:43;;;;;;;27.53;21.37;;;2.50;99.90;;;;;;5018176;28;20211;-83
2022/01/26 05:35:11;;;;;;;30.90;20.90;;;2.50;99.90;;;;;;5035945;28;20183;-84
2022/01/26 05:37:37;;;;;;;30.73;21.30;;;2.50;99.90;;;;;;5036014;28;20598;-84
2022/01/26 05:40:04;;;;;;;30.17;20.87;;;2.40;99.90;;;;;;5036304;28;20184;-83
2022/01/26 05:42:31;;;;;;;30.13;21.97;;;2.50;99.90;;;;;;5036259;28;20210;-82
2022/01/26 05:45:03;;;;;;;31.50;21.63;;;2.50;99.90;;;;;;5018172;28;20674;-84
2022/01/26 05:47:32;;;;;;;27.60;20.60;;;2.50;99.90;;;;;;5035927;28;20163;-84
2022/01/26 05:49:58;;;;;;;30.37;21.57;;;2.50;99.90;;;;;;5035898;28;20225;-85
2022/01/26 05:52:24;;;;;;;28.90;21.13;;;2.50;99.90;;;;;;5035957;28;20214;-85
2022/01/26 05:54:49;;;;;;;26.47;20.90;;;2.50;99.90;;;;;;5035859;28;20238;-81
2022/01/26 05:57:18;;;;;;;26.07;19.27;;;2.50;99.90;;;;;;5035634;28;20576;-82
2022/01/26 05:59:47;;;;;;;25.67;19.63;;;2.50;99.90;;;;;;5035514;28;20166;-83
2022/01/26 06:02:13;;;;;;;24.97;19.13;;;2.40;99.90;;;;;;5035647;28;20172;-83
2022/01/26 06:04:38;;;;;;;27.13;19.37;;;2.40;99.90;;;;;;5035403;28;20179;-83
2022/01/26 06:07:04;;;;;;;23.80;18.47;;;2.50;99.90;;;;;;5035335;28;20174;-84
2022/01/26 06:09:30;;;;;;;24.07;18.30;;;2.50;99.90;;;;;;5035195;28;20182;-84
2022/01/26 06:11:58;;;;;;;25.27;17.20;;;2.50;99.90;;;;;;5036326;28;20220;-82
2022/01/26 06:14:24;;;;;;;24.90;19.43;;;2.50;99.90;;;;;;5035087;28;20180;-83
2022/01/26 06:16:50;;;;;;;29.23;19.60;;;2.40;99.90;;;;;;5017430;28;20521;-84
2022/01/26 06:19:16;;;;;;;24.73;18.20;;;2.50;99.90;;;;;;5035260;28;20200;-82
2022/01/26 06:21:44;;;;;;;23.40;17.10;;;2.50;99.90;;;;;;5035014;28;20181;-82
2022/01/26 06:24:10;;;;;;;22.77;17.40;;;2.50;99.90;;;;;;5034841;28;20183;-82
2022/01/26 06:26:36;;;;;;;24.27;17.43;;;2.50;99.90;;;;;;5034994;28;20567;-82
2022/01/26 06:29:02;;;;;;;23.97;18.87;;;2.50;99.90;;;;;;5035406;28;20265;-82
2022/01/26 06:31:28;;;;;;;22.37;17.10;;;2.50;99.90;;;;;;5036791;28;20584;-83
2022/01/26 06:33:56;;;;;;;26.70;19.30;;;2.60;99.90;;;;;;5034895;28;20218;-82
2022/01/26 06:36:22;;;;;;;17.70;14.00;;;2.60;99.90;;;;;;5035446;28;20177;-83
2022/01/26 06:38:49;;;;;;;19.70;14.70;;;2.60;99.90;;;;;;5034383;28;20258;-85
2022/01/26 06:41:22;;;;;;;18.83;14.43;;;2.60;99.90;;;;;;5035193;28;20168;-82
2022/01/26 06:43:53;;;;;;;18.23;14.27;;;2.60;99.90;;;;;;5018962;28;20616;-83
2022/01/26 06:46:28;;;;;;;20.03;14.40;;;2.60;99.90;;;;;;5034900;28;20239;-84
2022/01/26 06:49:28;;;;;;;20.27;14.70;;;2.60;99.90;;;;;;5034815;28;20298;-86
2022/01/26 06:51:43;;;;;;;19.10;14.50;;;2.60;99.90;;;;;;5039394;28;20179;-85
2022/01/26 06:54:09;;;;;;;18.47;14.87;;;2.70;99.90;;;;;;5045447;28;20175;-86
2022/01/26 06:56:34;;;;;;;16.83;13.73;;;2.70;99.90;;;;;;5043614;28;20600;-86
2022/01/26 06:59:00;;;;;;;20.43;14.73;;;2.70;99.90;;;;;;5020876;28;20191;-85
2022/01/26 07:01:26;;;;;;;24.40;15.10;;;2.80;99.90;;;;;;5035529;28;20178;-85
2022/01/26 07:03:52;;;;;;;19.57;14.23;;;2.80;99.90;;;;;;5034847;28;20195;-85
2022/01/26 07:06:17;;;;;;;18.13;14.40;;;2.80;99.90;;;;;;5034464;28;20299;-84
2022/01/26 07:08:45;;;;;;;18.37;13.83;;;3.00;99.90;;;;;;5017216;28;20215;-86
2022/01/26 07:11:11;;;;;;;18.30;14.20;;;3.00;99.90;;;;;;5017195;28;20175;-86
2022/01/26 07:13:39;;;;;;;19.17;15.10;;;3.00;99.90;;;;;;5034874;28;20274;-85
2022/01/26 07:21:33;;;;;;;22.73;16.37;;;3.10;99.90;;;;;;5034864;28;20211;-84
2022/01/26 07:23:59;;;;;;;22.70;16.83;;;3.10;99.90;;;;;;5034832;28;20182;-84
2022/01/26 07:26:30;;;;;;;20.87;15.73;;;3.10;99.90;;;;;;5036305;28;20638;-86
2022/01/26 07:29:06;;;;;;;22.90;17.40;;;3.20;99.90;;;;;;5034180;28;20362;-86
2022/01/26 07:31:35;;;;;;;22.67;17.77;;;3.10;99.90;;;;;;5036015;28;20203;-87
2022/01/26 07:34:01;;;;;;;22.47;16.37;;;3.10;99.90;;;;;;5037317;28;20222;-85
2022/01/26 07:36:27;;;;;;;20.93;15.57;;;3.00;99.90;;;;;;5034962;28;20509;-83
2022/01/26 07:38:55;;;;;;;19.00;14.47;;;3.10;99.90;;;;;;5036325;28;20255;-86
2022/01/26 07:41:21;;;;;;;20.10;15.63;;;3.10;99.90;;;;;;5035193;28;20227;-85
2022/01/26 07:43:47;;;;;;;19.83;15.37;;;3.10;99.90;;;;;;5016218;28;20176;-85
2022/01/26 07:46:13;;;;;;;18.30;14.60;;;3.10;99.90;;;;;;5016396;28;20183;-85
2022/01/26 07:48:40;;;;;;;25.47;18.20;;;3.10;99.90;;;;;;5016149;28;20536;-85
2022/01/26 07:51:05;;;;;;;24.87;18.00;;;3.20;99.90;;;;;;5033007;28;20191;-85
2022/01/26 07:53:32;;;;;;;21.77;17.70;;;3.10;99.90;;;;;;5034336;28;20684;-84
2022/01/26 07:55:58;;;;;;;26.73;19.00;;;3.20;99.90;;;;;;5016098;28;20173;-85
2022/01/26 07:58:27;;;;;;;27.33;20.57;;;3.20;99.90;;;;;;5033371;28;20529;-83
2022/01/26 08:00:53;;;;;;;23.67;17.73;;;3.20;99.90;;;;;;5034329;28;20187;-82
2022/01/26 08:03:19;;;;;;;25.37;19.50;;;3.30;99.90;;;;;;5023393;28;20274;-82
2022/01/26 08:05:44;;;;;;;26.40;19.90;;;3.30;99.90;;;;;;5040609;28;20199;-84
2022/01/26 08:08:10;;;;;;;25.30;19.77;;;3.20;99.90;;;;;;5041503;28;20587;-83
2022/01/26 08:10:36;;;;;;;27.80;20.33;;;3.20;99.90;;;;;;5041199;28;20187;-83
2022/01/26 08:13:03;;;;;;;28.87;19.13;;;3.20;99.90;;;;;;5042040;28;20242;-84
2022/01/26 08:15:29;;;;;;;25.23;19.17;;;3.20;99.90;;;;;;5042355;28;20232;-84
2022/01/26 08:17:57;;;;;;;26.37;19.10;;;3.30;99.90;;;;;;5042616;28;20184;-85
2022/01/26 08:20:23;;;;;;;26.47;19.33;;;3.20;99.90;;;;;;5042826;28;20174;-83
2022/01/26 08:22:51;;;;;;;26.67;19.67;;;3.10;99.90;;;;;;5041641;28;20712;-83
2022/01/26 08:25:17;;;;;;;30.60;20.10;;;3.20;99.90;;;;;;5024906;28;20244;-84
2022/01/26 08:27:51;;;;;;;27.50;20.93;;;3.20;99.90;;;;;;5043880;28;20199;-84
2022/01/26 08:30:18;;;;;;;29.27;19.33;;;3.10;99.90;;;;;;5041937;28;20613;-84
2022/01/26 08:32:45;;;;;;;27.43;19.40;;;3.30;99.90;;;;;;5041760;28;20209;-84
2022/01/26 08:35:11;;;;;;;25.50;19.83;;;3.70;99.90;;;;;;5042178;28;20231;-85
2022/01/26 08:37:37;;;;;;;17.43;13.33;;;3.70;99.90;;;;;;5041236;28;20176;-85
2022/01/26 08:40:04;;;;;;;18.70;13.27;;;3.70;99.90;;;;;;5041489;28;20231;-83
2022/01/26 08:42:29;;;;;;;12.97;11.00;;;3.80;99.90;;;;;;5044443;28;20188;-84
2022/01/26 08:44:55;;;;;;;17.80;13.73;;;3.80;99.90;;;;;;5050419;28;20180;-84
2022/01/26 08:47:21;;;;;;;24.03;17.33;;;3.80;99.90;;;;;;5048779;28;20171;-83
2022/01/26 08:49:47;;;;;;;21.43;16.50;;;3.70;99.90;;;;;;5042348;28;20172;-85
2022/01/26 08:52:13;;;;;;;23.07;17.13;;;3.70;99.90;;;;;;5024064;28;20651;-85
2022/01/26 08:54:39;;;;;;;24.97;18.03;;;3.70;99.90;;;;;;5008129;28;20185;-84
2022/01/26 08:57:05;;;;;;;27.23;18.73;;;3.60;99.90;;;;;;5024499;28;20195;-84
2022/01/26 08:59:31;;;;;;;26.00;19.07;;;3.60;99.90;;;;;;5040943;28;20627;-83
2022/01/26 09:01:56;;;;;;;23.33;17.83;;;3.70;99.90;;;;;;5037359;28;20631;-85
2022/01/26 09:04:22;;;;;;;22.97;17.70;;;3.70;99.90;;;;;;5037428;28;20585;-85
2022/01/26 09:06:54;;;;;;;31.27;20.87;;;3.70;99.90;;;;;;5041447;28;20194;-85
2022/01/26 09:09:21;;;;;;;22.63;17.77;;;3.70;99.90;;;;;;5027938;28;20177;-84
2022/01/26 09:11:48;;;;;;;25.40;18.17;;;3.80;99.90;;;;;;5046351;28;20195;-84
2022/01/26 09:14:20;;;;;;;27.07;19.07;;;3.80;99.90;;;;;;5046506;28;20176;-84
2022/01/26 09:16:49;;;;;;;23.30;17.97;;;3.80;99.90;;;;;;5046463;28;20157;-83
2022/01/26 09:21:49;;;;;;;24.47;18.80;;;3.90;99.90;;;;;;5048025;28;20161;-83
2022/01/26 09:24:15;;;;;;;27.63;18.40;;;3.90;99.90;;;;;;5049885;28;20227;-84
2022/01/26 09:26:41;;;;;;;25.37;17.53;;;3.90;99.90;;;;;;5049706;28;20172;-84
2022/01/26 09:29:07;;;;;;;25.93;18.53;;;3.90;99.90;;;;;;5049472;28;20236;-84
2022/01/26 09:31:33;;;;;;;27.10;19.10;;;4.00;99.90;;;;;;5031646;28;20176;-84
2022/01/26 09:33:59;;;;;;;27.60;20.00;;;4.10;99.90;;;;;;5046839;28;20232;-85
2022/01/26 09:36:25;;;;;;;25.67;18.77;;;4.00;99.90;;;;;;5045097;28;20167;-85
2022/01/26 09:38:51;;;;;;;25.53;18.40;;;4.10;99.90;;;;;;5044779;28;20172;-84
2022/01/26 09:41:19;;;;;;;24.87;18.13;;;4.10;99.90;;;;;;5045177;28;20248;-84
2022/01/26 09:43:46;;;;;;;23.27;17.97;;;4.10;99.90;;;;;;5046258;28;20169;-84
2022/01/26 09:46:12;;;;;;;25.87;19.30;;;4.10;99.90;;;;;;5028746;28;20266;-82
2022/01/26 09:48:39;;;;;;;25.57;18.97;;;4.20;99.90;;;;;;5045515;28;20161;-84
2022/01/26 09:51:05;;;;;;;24.10;18.60;;;4.30;99.90;;;;;;5027836;28;20183;-85
2022/01/26 09:53:33;;;;;;;26.13;19.10;;;4.30;99.90;;;;;;5027480;28;20219;-85
2022/01/26 09:55:59;;;;;;;27.33;19.10;;;4.20;99.90;;;;;;5043476;28;20575;-85
2022/01/26 09:58:26;;;;;;;25.67;18.47;;;4.20;99.90;;;;;;5026843;28;20173;-85
2022/01/26 10:01:00;;;;;;;30.27;19.00;;;4.30;99.90;;;;;;5044908;28;20188;-83
2022/01/26 10:03:30;;;;;;;27.70;18.70;;;4.30;99.90;;;;;;5039109;28;20176;-84
2022/01/26 10:05:57;;;;;;;25.67;17.40;;;4.30;99.90;;;;;;5036208;28;20642;-83
2022/01/26 10:09:39;;;;;;;22.97;17.57;;;4.20;99.90;;;;;;5036208;28;20254;-84
2022/01/26 10:19:26;;;;;;;24.77;17.87;;;4.10;99.90;;;;;;5035753;28;20629;-84
2022/01/26 10:21:53;;;;;;;25.37;17.53;;;4.00;99.90;;;;;;5017506;28;20185;-84
2022/01/26 10:24:24;;;;;;;25.40;17.23;;;4.00;99.90;;;;;;5036554;28;20180;-85
2022/01/26 10:26:57;;;;;;;24.40;16.70;;;4.10;99.90;;;;;;5035885;28;20209;-84
2022/01/26 10:29:24;;;;;;;28.00;18.00;;;4.10;99.90;;;;;;5035991;28;20219;-84
2022/01/26 10:31:49;;;;;;;26.10;18.03;;;4.20;99.90;;;;;;5035871;28;20195;-84
2022/01/26 10:34:17;;;;;;;28.07;17.13;;;4.20;99.90;;;;;;5024046;28;20255;-85
2022/01/26 10:37:10;;;;;;;27.87;17.90;;;4.20;99.90;;;;;;5048158;28;20233;-83
2022/01/26 10:39:41;;;;;;;24.67;18.00;;;4.20;99.90;;;;;;5020782;28;20188;-84
2022/01/26 10:42:13;;;;;;;25.33;17.60;;;4.20;99.90;;;;;;5035477;28;20161;-84
2022/01/26 10:45:13;;;;;;;28.43;18.30;;;4.20;99.90;;;;;;5035365;28;20634;-83
2022/01/26 10:47:36;;;;;;;32.97;18.03;;;4.20;99.90;;;;;;5033982;28;20671;-83
2022/01/26 10:53:10;;;;;;;22.80;15.60;;;4.20;99.90;;;;;;5034881;28;20683;-84
2022/01/26 10:55:37;;;;;;;24.83;16.87;;;4.20;99.90;;;;;;5034895;28;20161;-83
2022/01/26 10:58:04;;;;;;;22.23;16.37;;;4.20;99.90;;;;;;5016816;28;20176;-84
2022/01/26 11:00:39;;;;;;;26.30;16.10;;;4.30;99.90;;;;;;5034413;28;20639;-85
2022/01/26 11:03:06;;;;;;;21.37;14.57;;;4.30;99.90;;;;;;5016663;28;20175;-84
2022/01/26 11:05:32;;;;;;;21.40;15.80;;;4.30;99.90;;;;;;5034261;28;20168;-84
2022/01/26 11:07:59;;;;;;;24.40;15.97;;;4.40;99.90;;;;;;5034346;28;20161;-83
2022/01/26 11:10:33;;;;;;;24.33;16.27;;;4.50;99.80;;;;;;5034701;28;20168;-85
2022/01/26 11:12:59;;;;;;;24.10;16.90;;;4.50;99.90;;;;;;5035217;28;20261;-85
2022/01/26 11:15:25;;;;;;;23.37;16.30;;;4.50;99.90;;;;;;5036574;28;20163;-84
2022/01/26 11:17:51;;;;;;;22.03;17.23;;;4.50;99.90;;;;;;5037513;28;20179;-84
2022/01/26 11:20:18;;;;;;;23.37;16.87;;;4.50;99.90;;;;;;5038028;28;20263;-84
2022/01/26 11:22:48;;;;;;;23.30;17.17;;;4.50;99.90;;;;;;5037506;28;20240;-84
2022/01/26 11:25:14;;;;;;;23.70;17.53;;;4.60;99.90;;;;;;5038274;28;20172;-82
2022/01/26 11:27:42;;;;;;;26.27;17.10;;;4.60;99.90;;;;;;5021892;28;20189;-82
2022/01/26 11:30:26;;;;;;;23.90;16.63;;;4.50;99.90;;;;;;5042739;28;20221;-81
2022/01/26 11:32:57;;;;;;;23.90;17.30;;;4.60;99.90;;;;;;5041840;28;20207;-82
2022/01/26 11:35:25;;;;;;;23.27;17.03;;;4.70;99.70;;;;;;5040250;28;20163;-83
2022/01/26 11:38:07;;;;;;;24.93;16.83;;;4.60;99.60;;;;;;5035756;28;20186;-84
2022/01/26 11:46:36;;;;;;;25.43;17.00;;;4.70;99.60;;;;;;5034039;28;20309;-84
2022/01/26 11:49:11;;;;;;;25.10;17.30;;;4.70;99.80;;;;;;5034132;28;20177;-84
2022/01/26 11:51:49;;;;;;;21.80;17.13;;;4.60;99.90;;;;;;5034143;28;20168;-83
2022/01/26 11:54:17;;;;;;;24.87;17.43;;;4.60;99.90;;;;;;5034160;28;20529;-83
2022/01/26 11:57:09;;;;;;;26.90;16.53;;;4.50;99.60;;;;;;5016169;28;20589;-83
2022/01/26 11:59:41;;;;;;;22.03;16.33;;;4.60;99.70;;;;;;5033900;28;20620;-83
2022/01/26 12:02:22;;;;;;;26.20;16.20;;;4.60;99.60;;;;;;5035147;28;20161;-83
2022/01/26 12:04:59;;;;;;;24.13;16.30;;;4.60;99.70;;;;;;5034782;28;20185;-83
2022/01/26 12:07:29;;;;;;;30.30;16.67;;;4.60;99.90;;;;;;5033876;28;20183;-83
2022/01/26 12:09:56;;;;;;;22.70;16.70;;;4.60;99.60;;;;;;5033814;28;20180;-84
2022/01/26 12:12:23;;;;;;;24.57;15.90;;;4.60;99.80;;;;;;5016035;28;20207;-85
2022/01/26 12:15:15;;;;;;;22.87;16.23;;;4.70;99.50;;;;;;5016071;28;20186;-83
2022/01/26 12:17:59;;;;;;;24.70;16.60;;;4.60;99.30;;;;;;5034545;28;20149;-86
2022/01/26 12:34:47;;;;;;;20.43;15.57;;;4.70;99.20;;;;;;5002314;28;20195;-85
2022/01/26 12:37:13;;;;;;;22.47;16.03;;;4.80;99.10;;;;;;5033645;28;20186;-84
2022/01/26 12:45:04;;;;;;;20.67;16.13;;;4.80;98.70;;;;;;5037651;28;20214;-85
2022/01/26 12:47:31;;;;;;;22.33;16.70;;;4.80;99.00;;;;;;5037782;28;20575;-86
2022/01/26 12:49:58;;;;;;;20.80;16.33;;;4.80;98.80;;;;;;5039075;28;20172;-85
2022/01/26 12:52:24;;;;;;;21.67;16.13;;;4.80;98.90;;;;;;5037818;28;20204;-84
2022/01/26 12:54:50;;;;;;;24.37;17.73;;;4.80;98.90;;;;;;5038262;28;20171;-86
2022/01/26 12:57:16;;;;;;;21.63;16.70;;;4.90;99.00;;;;;;5038295;28;20173;-84
2022/01/26 12:59:43;;;;;;;21.50;16.67;;;4.90;99.00;;;;;;5037331;28;20599;-84
2022/01/26 13:02:09;;;;;;;23.20;16.93;;;4.90;98.90;;;;;;5036861;28;20207;-84
2022/01/26 13:04:36;;;;;;;22.50;16.93;;;5.00;98.70;;;;;;5018994;28;20177;-85
2022/01/26 13:07:03;;;;;;;23.80;17.17;;;5.00;98.50;;;;;;5036666;28;20691;-84
2022/01/26 13:09:41;;;;;;;25.13;17.83;;;5.00;98.30;;;;;;5018809;28;20204;-85
2022/01/26 13:12:07;;;;;;;20.87;16.50;;;4.90;98.40;;;;;;5036357;28;20342;-84
2022/01/26 13:14:45;;;;;;;21.50;16.00;;;4.90;98.50;;;;;;5036437;28;20192;-84
2022/01/26 13:25:56;;;;;;;23.43;17.03;;;4.90;98.60;;;;;;4994953;28;20311;-85
2022/01/26 13:28:44;;;;;;;20.67;16.00;;;4.80;98.90;;;;;;4994615;28;20227;-84
2022/01/26 13:34:20;;;;;;;23.87;16.53;;;4.80;98.40;;;;;;5036489;28;20212;-86
2022/01/26 13:45:06;;;;;;;25.13;16.67;;;4.70;98.90;;;;;;5035869;28;20173;-83
2022/01/26 13:52:56;;;;;;;19.77;15.80;;;4.80;99.00;;;;;;5035741;28;20202;-85
2022/01/26 14:01:03;;;;;;;26.83;16.57;;;4.70;98.70;;;;;;5036451;28;20191;-85
2022/01/26 14:03:32;;;;;;;24.37;17.03;;;4.60;98.90;;;;;;5036284;28;20159;-85
2022/01/26 14:05:58;;;;;;;23.93;16.30;;;4.70;98.70;;;;;;5036212;28;20176;-85
2022/01/26 14:08:23;;;;;;;22.77;16.90;;;4.80;99.90;;;;;;5035955;28;20543;-86
2022/01/26 14:10:49;;;;;;;28.77;17.67;;;4.90;99.90;;;;;;5036493;28;20184;-86
2022/01/26 14:13:21;;;;;;;21.13;16.23;;;4.90;99.10;;;;;;5018683;28;20236;-85
2022/01/26 14:15:50;;;;;;;22.10;17.00;;;4.90;98.80;;;;;;5044430;28;20219;-85
2022/01/26 14:20:53;;;;;;;23.87;17.83;;;4.70;98.20;;;;;;5040472;28;20593;-84
2022/01/26 14:26:07;;;;;;;27.10;18.23;;;4.50;98.60;;;;;;5036909;28;20195;-84
2022/01/26 14:28:35;;;;;;;24.23;17.43;;;4.50;98.60;;;;;;5036320;28;20695;-85
2022/01/26 14:33:56;;;;;;;25.03;16.83;;;4.50;98.50;;;;;;5050807;28;20211;-84
2022/01/26 14:55:58;;;;;;;24.93;17.30;;;4.20;98.50;;;;;;4954536;28;20181;-85
2022/01/26 15:09:40;;;;;;;23.30;16.90;;;4.00;99.10;;;;;;5034729;28;20654;-86
2022/01/26 15:40:00;;;;;;;24.60;17.60;;;4.30;99.90;;;;;;5054619;28;20198;-85
2022/01/26 15:57:34;;;;;;;27.33;19.77;;;3.50;99.90;;;;;;5054811;28;20170;-84
2022/01/26 16:08:32;;;;;;;25.70;17.37;;;3.40;99.90;;;;;;5064753;28;20638;-85
2022/01/26 16:16:54;;;;;;;24.27;18.07;;;3.40;99.90;;;;;;5053762;28;20209;-84
2022/01/26 16:38:33;;;;;;;25.33;18.77;;;3.30;99.90;;;;;;5053286;28;20592;-84
2022/01/26 17:25:51;;;;;;;28.67;19.77;;;3.30;99.90;;;;;;5057108;28;20162;-86
2022/01/26 18:32:56;;;;;;;31.00;20.80;;;2.90;99.90;;;;;;5055141;28;20314;-82
2022/01/26 18:49:19;;;;;;;29.93;21.50;;;2.80;99.90;;;;;;5055159;28;20218;-84
2022/01/26 18:51:57;;;;;;;29.13;20.90;;;2.80;99.90;;;;;;5036716;28;20241;-84
2022/01/26 18:54:27;;;;;;;31.43;20.70;;;2.80;99.90;;;;;;5054542;28;20663;-83
2022/01/26 18:56:54;;;;;;;29.20;21.57;;;2.90;99.90;;;;;;5054431;28;20192;-84
2022/01/26 18:59:22;;;;;;;31.30;21.83;;;2.80;99.90;;;;;;5036635;28;20171;-85
2022/01/26 19:01:51;;;;;;;31.13;20.67;;;2.80;99.90;;;;;;5054993;28;20169;-84
2022/01/26 19:04:28;;;;;;;31.70;21.43;;;2.80;99.90;;;;;;5054457;28;20661;-85
2022/01/26 19:06:55;;;;;;;28.83;20.60;;;2.80;99.90;;;;;;5054674;28;20160;-85
2022/01/26 19:09:26;;;;;;;29.80;21.10;;;2.80;99.90;;;;;;5054403;28;20172;-86
2022/01/26 19:11:53;;;;;;;30.30;21.03;;;2.80;99.90;;;;;;5055058;28;20159;-85
2022/01/26 19:14:24;;;;;;;31.30;21.93;;;2.80;99.90;;;;;;5036438;28;20224;-85
2022/01/26 19:16:57;;;;;;;27.50;19.93;;;2.80;99.90;;;;;;5037949;28;20536;-86
2022/01/26 19:22:02;;;;;;;31.10;23.73;;;2.80;99.90;;;;;;5053587;28;20418;-84
2022/01/26 19:32:47;;;;;;;30.57;21.97;;;2.80;99.90;;;;;;5055099;28;20508;-85
2022/01/26 19:46:04;;;;;;;33.23;22.30;;;2.80;99.90;;;;;;5062437;28;20183;-85
2022/01/26 19:51:15;;;;;;;28.43;21.50;;;2.70;99.90;;;;;;5064449;28;20162;-85
2022/01/26 19:53:41;;;;;;;34.50;22.60;;;2.70;99.90;;;;;;5067106;28;20199;-85
2022/01/26 19:56:07;;;;;;;30.90;22.20;;;2.80;99.90;;;;;;5062973;28;20582;-83
2022/01/26 19:58:34;;;;;;;31.17;21.77;;;2.80;99.90;;;;;;5054198;28;20171;-86